Bookmark and Share
Track history (hours):
 

Podhale (bahama Islands)

Last reported at 2014-Apr-13 17:33 UTC. Time now 2014-Apr-16 19:24 UTC.
Position N 36°11' W 008°54'.

Length 190 m; beam 24 m.

Type: Cargo ship. MMSI: 311831000.

NotesDate/timePositionNaut miles runAvg speedWind from/ knotsBaromVisibWave heightAir tempDewpointWater temp
2014-Apr-13 17:33N 36°11' W 008°54'1212.3
2014-Apr-13 16:32N 36°23' W 008°60'1111.2
2014-Apr-13 15:32N 36°32' W 009°08'1211.2
2014-Apr-13 14:30N 36°37' W 009°21'3411.3
2014-Apr-13 11:31N 37°08' W 009°39'1212.0
2014-Apr-13 10:28N 37°20' W 009°42'1112.4
2014-Apr-13 09:33N 37°31' W 009°46'1212.1
2014-Apr-13 08:33N 37°43' W 009°49'1211.6
2014-Apr-13 07:33N 37°54' W 009°52'1111.5
2014-Apr-13 06:33N 38°05' W 009°56'1311.7
2014-Apr-13 05:25N 38°18' W 009°60'1211.8
2014-Apr-13 04:22N 38°30' W 010°03'1012.0
2014-Apr-13 03:29N 38°41' W 010°06'1112.0
2014-Apr-13 02:33N 38°52' W 010°06'  
2014-Apr-10 06:12N 49°54' W 003°12'711.2
2014-Apr-10 05:33N 49°58' W 003°02'2210.7
2014-Apr-10 03:30N 50°03' W 002°29'4411.2
2014-Apr-09 23:33N 49°52' W 001°22'1313.2
2014-Apr-09 22:32N 49°47' W 001°04'1312.9
2014-Apr-09 21:33N 49°41' W 000°46'1212.3
2014-Apr-09 20:33N 49°36' W 000°29'1211.7
2014-Apr-09 19:33N 49°32' W 000°12'1110.7
2014-Apr-09 18:33N 49°27' E 000°03'10 9.7
2014-Apr-09 17:33N 49°26' E 000°18'9 7.8
2014-Apr-09 16:24N 49°29' E 000°31'5 6.1
2014-Apr-09 15:33N 49°26' E 000°37'  

Dump ship's entire track history

sailing weather and tide predictions

Podhale (bahama Islands) — C6TX9 — position and weather